createdAt,value
2023-04-22T00:00:41.234Z,4.90
2023-04-22T00:03:18.250Z,5.00
2023-04-22T00:05:56.685Z,5.20
2023-04-22T00:08:45.356Z,5.70
2023-04-22T00:11:13.749Z,5.40
2023-04-22T00:13:45.617Z,5.60
2023-04-22T00:16:26.532Z,4.90
2023-04-22T00:18:58.127Z,5.30
2023-04-22T00:21:27.441Z,5.00
2023-04-22T00:26:24.311Z,4.80
2023-04-22T00:28:52.536Z,4.70
2023-04-22T00:31:20.916Z,5.30
2023-04-22T00:33:49.421Z,4.80
2023-04-22T00:36:17.508Z,4.70
2023-04-22T00:38:50.101Z,4.60
2023-04-22T00:41:18.459Z,4.40
2023-04-22T00:43:46.868Z,4.40
2023-04-22T00:46:16.521Z,4.60
2023-04-22T00:48:45.965Z,4.60
2023-04-22T00:53:42.289Z,4.70
2023-04-22T00:56:12.725Z,4.80
2023-04-22T00:58:41.301Z,4.60
2023-04-22T01:01:09.531Z,4.60
2023-04-22T01:03:40.658Z,4.70
2023-04-22T01:06:09.194Z,4.70
2023-04-22T01:08:37.537Z,4.40
2023-04-22T01:11:06.083Z,4.70
2023-04-22T01:13:36.085Z,4.70
2023-04-22T01:16:08.329Z,4.70
2023-04-22T01:18:37.184Z,4.70
2023-04-22T01:21:06.044Z,4.30
2023-04-22T01:23:34.732Z,4.40
2023-04-22T01:26:03.050Z,4.50
2023-04-22T01:28:31.691Z,4.50
2023-04-22T01:31:00.018Z,4.30
2023-04-22T01:33:28.660Z,4.40
2023-04-22T01:35:56.876Z,4.50
2023-04-22T01:38:25.211Z,4.30
2023-04-22T01:40:53.787Z,4.70
2023-04-22T01:43:22.065Z,5.10
2023-04-22T01:45:50.287Z,4.50
2023-04-22T01:48:18.473Z,4.50
2023-04-22T01:50:46.607Z,3.60
2023-04-22T01:53:15.229Z,5.10
2023-04-22T01:55:43.568Z,4.70
2023-04-22T01:58:14.730Z,4.50
2023-04-22T02:00:43.104Z,4.60
2023-04-22T02:03:11.847Z,4.90
2023-04-22T02:05:40.161Z,4.40
2023-04-22T02:08:08.327Z,5.30
2023-04-22T02:13:06.097Z,4.50
2023-04-22T02:15:34.298Z,5.00
2023-04-22T02:18:02.668Z,4.40
2023-04-22T02:20:30.846Z,4.10
2023-04-22T02:22:59.424Z,4.80
2023-04-22T02:25:28.824Z,4.00
2023-04-22T02:28:04.468Z,4.00
2023-04-22T02:30:32.840Z,4.30
2023-04-22T02:33:01.781Z,3.90
2023-04-22T02:35:30.004Z,4.40
2023-04-22T02:37:58.116Z,4.00
2023-04-22T02:40:26.991Z,4.10
2023-04-22T02:42:55.874Z,4.00
2023-04-22T02:45:24.054Z,4.20
2023-04-22T02:47:52.314Z,5.10
2023-04-22T02:50:21.112Z,5.40
2023-04-22T02:52:49.642Z,5.00
2023-04-22T02:55:17.698Z,5.20
2023-04-22T02:57:46.064Z,4.80
2023-04-22T03:00:14.651Z,5.10
2023-04-22T03:02:43.075Z,5.00
2023-04-22T03:05:16.299Z,4.70
2023-04-22T03:07:44.733Z,4.50
2023-04-22T03:10:13.372Z,5.30
2023-04-22T03:12:41.858Z,5.70
2023-04-22T03:15:13.403Z,5.30
2023-04-22T03:17:41.477Z,5.70
2023-04-22T03:20:12.533Z,6.10
2023-04-22T03:22:40.923Z,4.70
2023-04-22T03:25:11.529Z,5.20
2023-04-22T03:27:40.001Z,5.10
2023-04-22T03:30:08.630Z,5.30
2023-04-22T03:32:37.327Z,6.10
2023-04-22T03:35:25.017Z,4.80
2023-04-22T03:37:54.097Z,5.00
2023-04-22T03:40:26.688Z,4.90
2023-04-22T03:42:55.779Z,5.10
2023-04-22T03:45:27.424Z,4.80
2023-04-22T03:48:06.923Z,5.80
2023-04-22T03:50:40.186Z,4.50
2023-04-22T03:53:08.959Z,4.70
2023-04-22T03:55:37.312Z,4.90
2023-04-22T03:58:07.444Z,5.00
2023-04-22T04:00:35.827Z,4.40
2023-04-22T04:03:09.470Z,4.70
2023-04-22T04:05:38.176Z,5.00
2023-04-22T04:08:07.109Z,4.40
2023-04-22T04:10:46.247Z,5.00
2023-04-22T04:13:15.034Z,4.90
2023-04-22T04:16:07.298Z,4.60
2023-04-22T04:21:14.997Z,4.20
2023-04-22T04:23:48.379Z,4.80
2023-04-22T04:26:18.141Z,4.40
2023-04-22T04:28:49.450Z,4.40
2023-04-22T04:31:18.050Z,4.40
2023-04-22T04:33:47.708Z,3.60
2023-04-22T04:36:16.515Z,3.80
2023-04-22T04:38:45.215Z,3.50
2023-04-22T04:41:14.582Z,4.50
2023-04-22T04:46:20.954Z,3.50
2023-04-22T04:48:50.845Z,4.80
2023-04-22T04:51:20.416Z,4.70
2023-04-22T04:53:56.163Z,5.70
2023-04-22T04:56:25.143Z,5.80
2023-04-22T04:58:53.661Z,7.20
2023-04-22T05:01:25.907Z,7.00
2023-04-22T05:03:57.501Z,9.40
2023-04-22T05:06:27.128Z,9.70
2023-04-22T05:09:00.046Z,9.00
2023-04-22T05:11:28.555Z,10.20
2023-04-22T05:13:57.127Z,9.80
2023-04-22T05:16:30.233Z,10.10
2023-04-22T05:18:58.605Z,9.80
2023-04-22T05:21:29.028Z,10.80
2023-04-22T05:23:57.396Z,10.50
2023-04-22T05:26:26.109Z,10.40
2023-04-22T05:28:54.467Z,10.40
2023-04-22T05:31:23.230Z,10.80
2023-04-22T05:33:52.623Z,10.00
2023-04-22T05:36:21.343Z,10.90
2023-04-22T05:38:49.637Z,10.70
2023-04-22T05:41:18.010Z,10.70
2023-04-22T05:43:46.915Z,9.80
2023-04-22T05:46:17.961Z,10.80
2023-04-22T05:51:37.524Z,11.00
2023-04-22T05:54:05.983Z,10.60
2023-04-22T05:56:34.375Z,11.70
2023-04-22T05:59:02.670Z,10.70
2023-04-22T06:01:30.944Z,10.50
2023-04-22T06:04:07.682Z,9.70
2023-04-22T06:06:36.095Z,9.80
2023-04-22T06:09:04.253Z,10.80
2023-04-22T06:11:32.364Z,10.00
2023-04-22T06:14:00.618Z,10.60
2023-04-22T06:16:29.067Z,10.10
2023-04-22T06:18:57.276Z,10.60
2023-04-22T06:21:25.432Z,10.30
2023-04-22T06:23:53.388Z,10.10
2023-04-22T06:26:23.044Z,9.70
2023-04-22T06:28:51.606Z,9.20
2023-04-22T06:31:21.248Z,10.30
2023-04-22T06:33:49.619Z,10.30
2023-04-22T06:36:18.691Z,10.70
2023-04-22T06:38:50.477Z,12.60
2023-04-22T06:41:39.590Z,12.60
2023-04-22T06:44:15.132Z,13.50
2023-04-22T06:46:43.105Z,13.70
2023-04-22T06:49:27.358Z,12.90
2023-04-22T06:52:16.148Z,12.90
2023-04-22T06:57:12.922Z,12.20
2023-04-22T06:59:41.819Z,13.00
2023-04-22T07:02:13.172Z,11.60
2023-04-22T07:04:41.774Z,11.20
2023-04-22T07:09:38.186Z,11.10
2023-04-22T07:12:06.990Z,10.10
2023-04-22T07:14:35.549Z,10.50
2023-04-22T07:17:03.611Z,10.40
2023-04-22T07:19:33.219Z,10.60
2023-04-22T07:22:03.653Z,10.50
2023-04-22T07:24:32.554Z,10.10
2023-04-22T07:27:02.454Z,10.40
2023-04-22T07:29:30.611Z,10.20
2023-04-22T07:31:58.852Z,10.50
2023-04-22T07:34:27.109Z,10.00
2023-04-22T07:36:55.459Z,9.80
2023-04-22T07:39:23.548Z,9.70
2023-04-22T07:41:51.605Z,9.60
2023-04-22T07:44:21.537Z,10.30
2023-04-22T07:46:50.616Z,9.90
2023-04-22T07:49:19.837Z,8.10
2023-04-22T07:51:47.990Z,9.20
2023-04-22T07:54:16.061Z,7.70
2023-04-22T07:56:44.134Z,7.00
2023-04-22T07:59:12.316Z,7.20
2023-04-22T08:01:40.481Z,5.90
2023-04-22T08:04:09.129Z,5.90
2023-04-22T08:06:38.061Z,5.60
2023-04-22T08:11:34.277Z,6.20
2023-04-22T08:14:02.484Z,6.20
2023-04-22T08:16:31.270Z,5.80
2023-04-22T08:18:59.353Z,5.00
2023-04-22T08:21:28.800Z,5.10
2023-04-22T08:23:57.131Z,5.40
2023-04-22T08:26:26.023Z,5.30
2023-04-22T08:28:54.145Z,4.90
2023-04-22T08:31:22.408Z,5.30
2023-04-22T08:33:51.171Z,4.80
2023-04-22T08:36:22.909Z,5.50
2023-04-22T08:38:51.301Z,4.50
2023-04-22T08:41:19.678Z,4.30
2023-04-22T08:43:49.338Z,4.50
2023-04-22T08:46:20.251Z,4.30
2023-04-22T08:48:49.107Z,4.50
2023-04-22T08:53:46.317Z,4.00
2023-04-22T08:56:14.658Z,4.20
2023-04-22T08:58:43.219Z,4.40
2023-04-22T09:01:12.036Z,3.80
2023-04-22T09:03:41.777Z,4.20
2023-04-22T09:06:11.908Z,4.20
2023-04-22T09:08:40.237Z,3.80
2023-04-22T09:11:11.607Z,3.80
2023-04-22T09:13:40.869Z,3.80
2023-04-22T09:16:09.697Z,4.10
2023-04-22T09:18:42.629Z,3.90
2023-04-22T09:21:11.141Z,3.90
2023-04-22T09:23:53.555Z,4.30
2023-04-22T09:26:23.571Z,4.20
2023-04-22T09:28:58.398Z,4.20
2023-04-22T09:31:29.390Z,4.40
2023-04-22T09:33:59.220Z,4.30
2023-04-22T09:36:29.435Z,4.00
2023-04-22T09:39:00.225Z,4.00
2023-04-22T09:41:29.114Z,3.80
2023-04-22T09:43:58.834Z,4.10
2023-04-22T09:46:28.780Z,3.80
2023-04-22T09:48:59.242Z,4.00
2023-04-22T09:51:28.893Z,4.00
2023-04-22T09:54:04.212Z,3.60
2023-04-22T09:56:42.830Z,3.90
2023-04-22T09:59:12.148Z,4.40
2023-04-22T10:01:41.717Z,4.30
2023-04-22T10:04:11.313Z,4.40
2023-04-22T10:06:39.630Z,3.50
2023-04-22T10:09:09.389Z,4.10
2023-04-22T10:11:37.891Z,4.40
2023-04-22T10:14:05.986Z,3.60
2023-04-22T10:16:36.070Z,3.80
2023-04-22T10:19:07.359Z,3.90
2023-04-22T10:21:35.962Z,4.00
2023-04-22T10:24:04.826Z,3.50
2023-04-22T10:29:19.911Z,4.20
2023-04-22T10:32:11.947Z,3.70
2023-04-22T10:34:40.120Z,4.00
2023-04-22T10:37:09.521Z,3.50
2023-04-22T10:39:39.842Z,3.60
2023-04-22T10:42:16.844Z,3.50
2023-04-22T10:44:51.857Z,3.70
2023-04-22T10:47:33.994Z,3.50
2023-04-22T10:50:21.699Z,3.90
2023-04-22T10:52:57.078Z,4.20
2023-04-22T10:55:26.650Z,4.00
2023-04-22T10:57:54.791Z,3.80
2023-04-22T11:00:52.541Z,3.80
2023-04-22T11:03:30.303Z,3.80
2023-04-22T11:06:18.793Z,3.70
2023-04-22T11:08:48.916Z,3.60
2023-04-22T11:11:18.861Z,3.70
2023-04-22T11:13:50.953Z,3.90
2023-04-22T11:16:22.685Z,4.00
2023-04-22T11:18:51.397Z,3.20
2023-04-22T11:21:20.727Z,4.10
2023-04-22T11:23:56.343Z,3.80
2023-04-22T11:26:35.494Z,3.40
2023-04-22T11:29:03.957Z,3.90
2023-04-22T11:31:32.086Z,3.70
2023-04-22T11:34:00.583Z,3.40
2023-04-22T11:36:28.909Z,3.30
2023-04-22T11:38:57.697Z,3.00
2023-04-22T11:43:55.803Z,3.60
2023-04-22T11:46:31.290Z,3.20
2023-04-22T11:49:15.000Z,3.10
2023-04-22T11:51:56.745Z,3.20
2023-04-22T11:54:38.361Z,3.00
2023-04-22T11:57:08.536Z,3.00
2023-04-22T11:59:36.694Z,3.10
2023-04-22T12:02:05.928Z,3.20
2023-04-22T12:04:41.704Z,3.20
2023-04-22T12:07:09.761Z,3.80
2023-04-22T12:09:39.721Z,3.30
2023-04-22T12:12:07.982Z,3.60
2023-04-22T12:14:36.280Z,3.30
2023-04-22T12:17:12.232Z,3.50
2023-04-22T12:19:41.192Z,3.30
2023-04-22T12:22:09.716Z,3.80
2023-04-22T12:24:53.703Z,3.60
2023-04-22T12:27:21.774Z,3.10
2023-04-22T12:29:55.068Z,3.20
2023-04-22T12:32:27.030Z,3.50
2023-04-22T12:34:55.206Z,3.60
2023-04-22T12:37:23.134Z,3.40
2023-04-22T12:39:51.457Z,2.90
2023-04-22T12:42:21.473Z,3.10
2023-04-22T12:44:49.436Z,3.50
2023-04-22T12:47:18.367Z,2.80
2023-04-22T12:52:15.702Z,2.90
2023-04-22T12:54:43.778Z,2.70
2023-04-22T12:57:12.207Z,3.50
2023-04-22T12:59:40.489Z,3.10
2023-04-22T13:02:11.309Z,3.10
2023-04-22T13:04:39.629Z,3.20
2023-04-22T13:07:07.816Z,3.30
2023-04-22T13:09:35.781Z,3.00
2023-04-22T13:12:03.890Z,2.80
2023-04-22T13:14:31.825Z,2.50
2023-04-22T13:16:59.795Z,2.60
2023-04-22T13:19:29.715Z,3.00
2023-04-22T13:21:57.883Z,3.00
2023-04-22T13:24:26.472Z,3.00
2023-04-22T13:26:54.590Z,3.00
2023-04-22T13:29:22.609Z,2.90
2023-04-22T13:31:50.741Z,2.70
2023-04-22T13:34:18.858Z,3.20
2023-04-22T13:36:47.345Z,3.00
2023-04-22T13:39:16.010Z,3.20
2023-04-22T13:41:45.270Z,2.80
2023-04-22T13:44:14.132Z,3.50
2023-04-22T13:49:11.705Z,3.20
2023-04-22T13:51:39.940Z,2.80
2023-04-22T13:54:08.353Z,2.70
2023-04-22T13:56:36.529Z,3.20
2023-04-22T13:59:04.598Z,3.10
2023-04-22T14:01:32.745Z,3.20
2023-04-22T14:04:01.091Z,3.10
2023-04-22T14:06:29.364Z,3.10
2023-04-22T14:08:57.605Z,3.00
2023-04-22T14:11:25.678Z,2.90
2023-04-22T14:13:53.644Z,3.10
2023-04-22T14:16:21.761Z,3.20
2023-04-22T14:18:49.907Z,2.60
2023-04-22T14:21:17.926Z,3.00
2023-04-22T14:23:45.943Z,3.00
2023-04-22T14:26:14.002Z,3.10
2023-04-22T14:28:44.076Z,3.30
2023-04-22T14:31:12.385Z,3.00
2023-04-22T14:33:41.279Z,2.50
2023-04-22T14:36:11.455Z,3.00
2023-04-22T14:38:39.448Z,2.90
2023-04-22T14:41:07.460Z,3.00
2023-04-22T14:43:36.243Z,3.00
2023-04-22T14:46:04.326Z,3.10
2023-04-22T14:48:35.392Z,3.70
2023-04-22T14:51:03.635Z,3.00
2023-04-22T14:53:32.463Z,3.10
2023-04-22T14:58:31.687Z,3.20
2023-04-22T15:01:00.560Z,3.40
2023-04-22T15:03:28.982Z,3.40
2023-04-22T15:05:58.100Z,3.40
2023-04-22T15:10:53.960Z,3.20
2023-04-22T15:13:22.329Z,3.00
2023-04-22T15:15:50.544Z,3.30
2023-04-22T15:18:18.975Z,3.20
2023-04-22T15:20:47.047Z,3.10
2023-04-22T15:23:15.021Z,3.20
2023-04-22T15:25:42.985Z,3.10
2023-04-22T15:28:10.956Z,3.10
2023-04-22T15:30:40.685Z,3.40
2023-04-22T15:33:08.754Z,3.20
2023-04-22T15:35:37.014Z,3.60
2023-04-22T15:38:05.902Z,3.60
2023-04-22T15:40:33.886Z,3.10
2023-04-22T15:43:01.959Z,3.30
2023-04-22T15:45:31.171Z,3.40
2023-04-22T15:47:59.348Z,3.50
2023-04-22T15:50:28.007Z,3.70
2023-04-22T15:52:56.082Z,3.20
2023-04-22T15:55:24.204Z,3.60
2023-04-22T15:57:52.145Z,3.30
2023-04-22T16:00:21.361Z,3.20
2023-04-22T16:02:55.760Z,3.40
2023-04-22T16:05:25.168Z,3.20
2023-04-22T16:07:53.989Z,3.20
2023-04-22T16:10:22.963Z,3.10
2023-04-22T16:15:19.264Z,3.40
2023-04-22T16:17:47.353Z,3.70
2023-04-22T16:20:15.673Z,4.10
2023-04-22T16:22:43.663Z,4.60
2023-04-22T16:25:11.695Z,4.10
2023-04-22T16:27:39.633Z,4.40
2023-04-22T16:30:08.584Z,3.90
2023-04-22T16:32:37.101Z,4.10
2023-04-22T16:35:06.161Z,5.00
2023-04-22T16:40:04.512Z,4.30
2023-04-22T16:42:32.776Z,3.90
2023-04-22T16:45:01.387Z,4.40
2023-04-22T16:47:29.640Z,4.40
2023-04-22T16:49:57.666Z,5.00
2023-04-22T16:52:25.678Z,4.70
2023-04-22T16:54:53.852Z,5.50
2023-04-22T16:57:22.135Z,7.30
2023-04-22T16:59:50.238Z,10.10
2023-04-22T17:02:18.364Z,10.50
2023-04-22T17:04:46.782Z,10.10
2023-04-22T17:07:14.993Z,10.20
2023-04-22T17:09:43.352Z,9.80
2023-04-22T17:12:12.005Z,9.10
2023-04-22T17:14:40.093Z,9.30
2023-04-22T17:17:08.261Z,8.60
2023-04-22T17:19:36.639Z,8.30
2023-04-22T17:22:04.905Z,9.00
2023-04-22T17:24:33.076Z,8.20
2023-04-22T17:27:03.127Z,7.60
2023-04-22T17:29:33.358Z,6.80
2023-04-22T17:32:01.827Z,7.10
2023-04-22T17:34:29.866Z,9.40
2023-04-22T17:36:57.897Z,9.30
2023-04-22T17:39:25.920Z,8.90
2023-04-22T17:41:53.879Z,9.70
2023-04-22T17:44:21.909Z,9.40
2023-04-22T17:46:50.025Z,9.70
2023-04-22T17:49:18.284Z,9.70
2023-04-22T17:51:46.385Z,9.80
2023-04-22T17:54:14.663Z,8.90
2023-04-22T17:56:42.951Z,7.70
2023-04-22T17:59:13.770Z,7.30
2023-04-22T18:01:43.212Z,6.80
2023-04-22T18:04:11.558Z,5.70
2023-04-22T18:06:39.783Z,6.70
2023-04-22T18:09:08.607Z,5.50
2023-04-22T18:11:36.682Z,5.10
2023-04-22T18:14:04.611Z,4.90
2023-04-22T18:16:32.695Z,5.70
2023-04-22T18:19:02.429Z,5.70
2023-04-22T18:21:31.436Z,5.00
2023-04-22T18:23:59.744Z,5.40
2023-04-22T18:26:27.886Z,5.10
2023-04-22T18:28:56.245Z,4.70
2023-04-22T18:31:26.610Z,4.60
2023-04-22T18:33:54.812Z,4.50
2023-04-22T18:36:23.539Z,4.90
2023-04-22T18:38:52.185Z,4.70
2023-04-22T18:41:20.675Z,4.80
2023-04-22T18:43:48.927Z,4.90
2023-04-22T18:46:17.078Z,4.60
2023-04-22T18:48:45.341Z,5.00
2023-04-22T18:51:16.478Z,4.70
2023-04-22T18:53:44.604Z,4.80
2023-04-22T18:56:12.802Z,4.40
2023-04-22T18:58:40.977Z,4.70
2023-04-22T19:01:09.193Z,4.80
2023-04-22T19:03:39.561Z,4.60
2023-04-22T19:06:07.982Z,4.70
2023-04-22T19:08:36.133Z,4.90
2023-04-22T19:11:04.482Z,4.40
2023-04-22T19:13:32.708Z,4.30
2023-04-22T19:16:00.934Z,4.60
2023-04-22T19:18:29.069Z,4.90
2023-04-22T19:20:57.754Z,4.70
2023-04-22T19:23:26.130Z,4.40
2023-04-22T19:25:55.524Z,5.20
2023-04-22T19:28:24.928Z,4.60
2023-04-22T19:30:53.749Z,4.60
2023-04-22T19:33:22.208Z,4.80
2023-04-22T19:35:50.377Z,4.60
2023-04-22T19:38:21.418Z,4.20
2023-04-22T19:40:50.108Z,4.20
2023-04-22T19:43:19.410Z,4.90
2023-04-22T19:45:47.689Z,4.40
2023-04-22T19:48:16.094Z,4.50
2023-04-22T19:50:45.061Z,4.90
2023-04-22T19:53:13.605Z,4.10
2023-04-22T19:55:43.758Z,4.10
2023-04-22T19:58:12.346Z,4.30
2023-04-22T20:00:40.610Z,4.00
2023-04-22T20:03:10.214Z,3.90
2023-04-22T20:05:38.733Z,4.40
2023-04-22T20:08:08.980Z,4.10
2023-04-22T20:10:38.078Z,4.60
2023-04-22T20:13:07.076Z,4.40
2023-04-22T20:15:36.330Z,4.70
2023-04-22T20:20:44.978Z,5.00
2023-04-22T20:23:15.373Z,4.70
2023-04-22T20:25:47.104Z,4.70
2023-04-22T20:28:15.864Z,6.00
2023-04-22T20:30:44.281Z,5.70
2023-04-22T20:33:17.246Z,5.40
2023-04-22T20:35:47.986Z,5.00
2023-04-22T20:38:20.616Z,5.10
2023-04-22T20:40:48.890Z,5.10
2023-04-22T20:43:17.084Z,4.80
2023-04-22T20:45:45.476Z,5.60
2023-04-22T20:48:13.513Z,5.60
2023-04-22T20:50:42.047Z,5.50
2023-04-22T20:53:10.173Z,5.00
2023-04-22T20:55:38.176Z,5.10
2023-04-22T20:58:06.314Z,6.00
2023-04-22T21:00:34.920Z,6.00
2023-04-22T21:03:04.721Z,5.60
2023-04-22T21:05:40.912Z,5.30
2023-04-22T21:08:24.379Z,5.60
2023-04-22T21:10:54.765Z,5.20
2023-04-22T21:13:23.842Z,5.50
2023-04-22T21:15:57.878Z,5.50
2023-04-22T21:18:28.993Z,5.40
2023-04-22T21:20:57.462Z,5.90
2023-04-22T21:23:26.786Z,6.50
2023-04-22T21:25:56.730Z,6.30
2023-04-22T21:28:25.515Z,5.60
2023-04-22T21:30:53.928Z,5.80
2023-04-22T21:33:22.095Z,5.50
2023-04-22T21:35:50.272Z,5.40
2023-04-22T21:38:19.818Z,6.20
2023-04-22T21:40:48.939Z,6.30
2023-04-22T21:43:17.202Z,5.80
2023-04-22T21:45:45.565Z,5.90
2023-04-22T21:48:13.626Z,5.40
2023-04-22T21:50:41.979Z,5.00
2023-04-22T21:53:11.206Z,4.80
2023-04-22T21:55:39.692Z,5.30
2023-04-22T21:58:07.965Z,5.10
2023-04-22T22:00:37.906Z,6.20
2023-04-22T22:03:06.511Z,5.80
2023-04-22T22:05:36.284Z,6.20
2023-04-22T22:08:04.655Z,6.80
2023-04-22T22:10:32.946Z,6.90
2023-04-22T22:13:01.114Z,6.30
2023-04-22T22:15:29.364Z,6.10
2023-04-22T22:17:57.709Z,6.50
2023-04-22T22:20:26.752Z,6.80
2023-04-22T22:22:54.926Z,6.10
2023-04-22T22:25:23.109Z,6.80
2023-04-22T22:27:51.414Z,6.80
2023-04-22T22:30:22.812Z,7.50
2023-04-22T22:32:50.841Z,7.20
2023-04-22T22:35:19.072Z,7.70
2023-04-22T22:37:47.392Z,8.10
2023-04-22T22:40:16.879Z,7.60
2023-04-22T22:45:13.003Z,7.50
2023-04-22T22:47:41.147Z,7.80
2023-04-22T22:50:09.466Z,7.40
2023-04-22T22:52:37.743Z,6.70
2023-04-22T22:55:06.629Z,8.10
2023-04-22T22:57:34.590Z,7.80
2023-04-22T23:00:02.687Z,8.40
2023-04-22T23:02:31.475Z,7.10
2023-04-22T23:05:00.747Z,9.30
2023-04-22T23:07:28.933Z,8.20
2023-04-22T23:09:57.208Z,7.10
2023-04-22T23:12:25.830Z,7.60
2023-04-22T23:14:53.966Z,8.50
2023-04-22T23:17:22.632Z,7.80
2023-04-22T23:19:53.979Z,7.70
2023-04-22T23:22:23.210Z,10.00
2023-04-22T23:27:19.454Z,8.30
2023-04-22T23:29:48.025Z,8.10
2023-04-22T23:32:20.087Z,8.00
2023-04-22T23:34:51.750Z,8.90
2023-04-22T23:37:20.733Z,9.50
2023-04-22T23:39:49.121Z,8.40
2023-04-22T23:42:17.166Z,8.60
2023-04-22T23:44:45.264Z,9.00
2023-04-22T23:47:13.440Z,7.10
2023-04-22T23:49:41.707Z,7.60
2023-04-22T23:52:10.532Z,7.60
2023-04-22T23:54:39.693Z,7.70
2023-04-22T23:57:08.545Z,8.00
2023-04-22T23:59:37.045Z,6.90
